Time;durP1;ratioP1;P1;durP2;ratioP2;P2;SDS_P1;SDS_P2;PMS_P1;PMS_P2;Temp;Humidity;BMP_temperature;BMP_pressure;BME280_temperature;BME280_humidity;BME280_pressure;Samples;Min_cycle;Max_cycle;Signal;HPM_P1;HPM_P2
2023/11/28 00:02:16;;;;;;;85.78;81.38;;;;;;;;;;5073220;28;20575;-77
2023/11/28 00:04:43;;;;;;;85.13;80.72;;;;;;;;;;5072367;28;20532;-77
2023/11/28 00:07:10;;;;;;;85.80;81.30;;;;;;;;;;5072279;28;20222;-77
2023/11/28 00:09:37;;;;;;;84.20;79.90;;;;;;;;;;5072677;28;20207;-77
2023/11/28 00:12:04;;;;;;;85.15;80.75;;;;;;;;;;5072251;28;20682;-77
2023/11/28 00:14:31;;;;;;;92.57;87.72;;;;;;;;;;5071779;28;20338;-78
2023/11/28 00:17:00;;;;;;;93.13;88.35;;;;;;;;;;5072458;28;20230;-77
2023/11/28 00:19:27;;;;;;;94.55;89.57;;;;;;;;;;5072518;28;20598;-79
2023/11/28 00:21:54;;;;;;;94.90;89.90;;;;;;;;;;5072360;28;20215;-79
2023/11/28 00:24:21;;;;;;;96.80;91.70;;;;;;;;;;5072144;28;20206;-78
2023/11/28 00:26:48;;;;;;;97.05;92.03;;;;;;;;;;5072632;28;20227;-78
2023/11/28 00:29:15;;;;;;;100.18;94.97;;;;;;;;;;5072414;28;20585;-78
2023/11/28 00:31:42;;;;;;;99.80;94.70;;;;;;;;;;5072459;28;20208;-78
2023/11/28 00:34:11;;;;;;;100.60;95.50;;;;;;;;;;5071684;28;20227;-78
2023/11/28 00:36:38;;;;;;;103.07;97.78;;;;;;;;;;5071993;28;20223;-79
2023/11/28 00:39:05;;;;;;;99.50;94.20;;;;;;;;;;5072437;28;20624;-78
2023/11/28 00:41:33;;;;;;;106.30;100.50;;;;;;;;;;5072461;28;20203;-78
2023/11/28 00:44:02;;;;;;;102.28;96.68;;;;;;;;;;5071914;28;20574;-78
2023/11/28 00:46:30;;;;;;;96.43;91.53;;;;;;;;;;5072414;28;20284;-77
2023/11/28 00:48:57;;;;;;;102.53;97.20;;;;;;;;;;5072295;28;20203;-77
2023/11/28 00:51:25;;;;;;;103.10;97.80;;;;;;;;;;5072095;28;20298;-78
2023/11/28 00:53:52;;;;;;;102.35;96.95;;;;;;;;;;5071429;28;20691;-78
2023/11/28 00:56:20;;;;;;;99.47;94.28;;;;;;;;;;5072234;28;20227;-79
2023/11/28 00:58:48;;;;;;;101.78;96.38;;;;;;;;;;5072252;28;20682;-79
2023/11/28 01:01:16;;;;;;;101.35;96.03;;;;;;;;;;5072388;28;20276;-77
2023/11/28 01:03:43;;;;;;;98.47;93.45;;;;;;;;;;5065754;28;20223;-79
2023/11/28 01:06:10;;;;;;;99.03;93.55;;;;;;;;;;5051792;28;20207;-78
2023/11/28 01:08:38;;;;;;;97.60;92.25;;;;;;;;;;5052441;28;20204;-78
2023/11/28 01:11:06;;;;;;;97.68;92.47;;;;;;;;;;5052334;28;20273;-79
2023/11/28 01:13:33;;;;;;;102.55;97.25;;;;;;;;;;5051680;28;20722;-78
2023/11/28 01:16:00;;;;;;;99.63;94.38;;;;;;;;;;5051847;28;20208;-78
2023/11/28 01:18:27;;;;;;;100.40;95.10;;;;;;;;;;5051884;28;20211;-78
2023/11/28 01:20:54;;;;;;;95.75;90.82;;;;;;;;;;5052265;28;20200;-77
2023/11/28 01:23:21;;;;;;;94.15;89.20;;;;;;;;;;5052237;28;20215;-78
2023/11/28 01:25:49;;;;;;;93.95;89.10;;;;;;;;;;5051379;28;20687;-78
2023/11/28 01:28:16;;;;;;;95.70;90.65;;;;;;;;;;5051767;28;20285;-77
2023/11/28 01:30:43;;;;;;;104.60;99.20;;;;;;;;;;5052064;28;20203;-78
2023/11/28 01:33:11;;;;;;;100.82;95.63;;;;;;;;;;5051647;28;20235;-77
2023/11/28 01:35:39;;;;;;;100.97;95.78;;;;;;;;;;5051019;28;20926;-78
2023/11/28 01:38:06;;;;;;;100.85;95.55;;;;;;;;;;5051867;28;20220;-77
2023/11/28 01:40:33;;;;;;;103.65;98.22;;;;;;;;;;5051695;28;20206;-78
2023/11/28 01:43:01;;;;;;;99.88;94.55;;;;;;;;;;5051461;28;20212;-77
2023/11/28 01:45:28;;;;;;;101.90;96.53;;;;;;;;;;5051331;28;20203;-78
2023/11/28 01:47:57;;;;;;;98.57;93.47;;;;;;;;;;5051874;28;20228;-78
2023/11/28 01:50:25;;;;;;;97.35;92.35;;;;;;;;;;5051921;28;20185;-77
2023/11/28 01:52:52;;;;;;;97.78;92.70;;;;;;;;;;5051592;28;20204;-77
2023/11/28 01:55:19;;;;;;;95.13;90.13;;;;;;;;;;5050885;28;20224;-77
2023/11/28 01:57:46;;;;;;;97.35;92.35;;;;;;;;;;5051765;28;20235;-78
2023/11/28 02:00:15;;;;;;;97.85;92.65;;;;;;;;;;5051587;28;20212;-77
2023/11/28 02:02:43;;;;;;;100.97;95.68;;;;;;;;;;5051456;28;20212;-77
2023/11/28 02:05:11;;;;;;;97.97;92.65;;;;;;;;;;5050814;28;20204;-77
2023/11/28 02:07:38;;;;;;;99.18;93.95;;;;;;;;;;5050834;28;20264;-77
2023/11/28 02:10:06;;;;;;;102.13;96.82;;;;;;;;;;5051403;28;20208;-77
2023/11/28 02:12:33;;;;;;;100.30;95.10;;;;;;;;;;5050955;28;20867;-78
2023/11/28 02:15:00;;;;;;;104.72;99.43;;;;;;;;;;5050755;28;20327;-77
2023/11/28 02:17:29;;;;;;;97.65;92.68;;;;;;;;;;5055021;28;20224;-77
2023/11/28 02:19:57;;;;;;;96.50;91.60;;;;;;;;;;5055031;28;20684;-77
2023/11/28 02:22:24;;;;;;;96.70;91.70;;;;;;;;;;5055120;28;20212;-77
2023/11/28 02:24:52;;;;;;;96.65;91.75;;;;;;;;;;5054023;28;20668;-78
2023/11/28 02:27:20;;;;;;;98.60;93.50;;;;;;;;;;5054773;28;20277;-77
2023/11/28 02:29:47;;;;;;;93.40;88.50;;;;;;;;;;5054350;28;20216;-77
2023/11/28 02:32:14;;;;;;;97.43;92.22;;;;;;;;;;5054910;28;20858;-76
2023/11/28 02:34:41;;;;;;;97.80;92.80;;;;;;;;;;5053940;28;20235;-79
2023/11/28 02:37:08;;;;;;;95.40;90.45;;;;;;;;;;5061629;28;20311;-77
2023/11/28 02:39:36;;;;;;;92.97;88.18;;;;;;;;;;5074636;28;20215;-76
2023/11/28 02:42:03;;;;;;;89.45;84.78;;;;;;;;;;5074307;28;20200;-78
2023/11/28 02:44:31;;;;;;;92.60;87.80;;;;;;;;;;5070318;28;20207;-79
2023/11/28 02:46:58;;;;;;;92.82;88.18;;;;;;;;;;5054163;28;20228;-78
2023/11/28 02:49:25;;;;;;;93.05;88.15;;;;;;;;;;5054489;28;20212;-77
2023/11/28 02:51:52;;;;;;;93.65;88.65;;;;;;;;;;5054084;28;20282;-77
2023/11/28 02:54:19;;;;;;;91.55;86.75;;;;;;;;;;5053584;28;20224;-77
2023/11/28 02:56:48;;;;;;;95.60;90.60;;;;;;;;;;5054068;28;20224;-77
2023/11/28 02:59:15;;;;;;;89.63;85.07;;;;;;;;;;5053475;28;20240;-77
2023/11/28 03:01:43;;;;;;;93.15;88.25;;;;;;;;;;5054307;28;20227;-78
2023/11/28 03:04:10;;;;;;;91.28;86.55;;;;;;;;;;5053018;28;20211;-78
2023/11/28 03:06:37;;;;;;;94.50;89.65;;;;;;;;;;5054399;28;20228;-77
2023/11/28 03:09:05;;;;;;;90.25;85.50;;;;;;;;;;5053803;28;20674;-77
2023/11/28 03:11:32;;;;;;;92.85;88.07;;;;;;;;;;5053714;28;20208;-77
2023/11/28 03:13:59;;;;;;;94.65;89.43;;;;;;;;;;5052968;28;20222;-77
2023/11/28 03:16:26;;;;;;;93.65;88.55;;;;;;;;;;5053782;28;20608;-78
2023/11/28 03:18:55;;;;;;;91.97;87.18;;;;;;;;;;5054112;28;20212;-77
2023/11/28 03:21:22;;;;;;;91.22;86.53;;;;;;;;;;5053278;28;20204;-77
2023/11/28 03:23:49;;;;;;;90.80;86.00;;;;;;;;;;5053198;28;20204;-77
2023/11/28 03:26:16;;;;;;;93.80;88.63;;;;;;;;;;5053496;28;20655;-76
2023/11/28 03:28:43;;;;;;;92.75;87.93;;;;;;;;;;5052800;28;20219;-77
2023/11/28 03:31:10;;;;;;;95.35;90.15;;;;;;;;;;5053405;28;20604;-77
2023/11/28 03:33:37;;;;;;;89.45;84.35;;;;;;;;;;5053515;28;20211;-77
2023/11/28 03:36:05;;;;;;;83.10;78.65;;;;;;;;;;5058595;28;20211;-78
2023/11/28 03:38:33;;;;;;;87.30;82.20;;;;;;;;;;5072928;28;20261;-76
2023/11/28 03:41:00;;;;;;;90.35;85.28;;;;;;;;;;5073448;28;20280;-76
2023/11/28 03:43:27;;;;;;;90.30;85.60;;;;;;;;;;5072892;28;20617;-77
2023/11/28 03:45:54;;;;;;;90.50;85.63;;;;;;;;;;5072710;28;20207;-76
2023/11/28 03:48:21;;;;;;;83.75;79.18;;;;;;;;;;5072935;28;20211;-76
2023/11/28 03:50:48;;;;;;;87.97;82.95;;;;;;;;;;5073233;28;20218;-77
2023/11/28 03:53:16;;;;;;;90.95;85.80;;;;;;;;;;5073142;28;20207;-77
2023/11/28 03:55:43;;;;;;;90.38;85.43;;;;;;;;;;5072129;28;20695;-77
2023/11/28 03:58:10;;;;;;;87.57;82.97;;;;;;;;;;5072901;28;20219;-78
2023/11/28 04:00:37;;;;;;;90.47;85.43;;;;;;;;;;5072626;28;20199;-77
2023/11/28 04:03:04;;;;;;;85.13;80.32;;;;;;;;;;5072574;28;20207;-77
2023/11/28 04:05:31;;;;;;;83.10;78.85;;;;;;;;;;5071804;28;20691;-76
2023/11/28 04:07:58;;;;;;;90.28;85.30;;;;;;;;;;5072724;28;20234;-76
2023/11/28 04:10:27;;;;;;;84.30;79.90;;;;;;;;;;5072386;28;20204;-77
2023/11/28 04:12:54;;;;;;;83.22;78.50;;;;;;;;;;5072314;28;20214;-76
2023/11/28 04:15:21;;;;;;;85.90;81.10;;;;;;;;;;5071803;28;20223;-76
2023/11/28 04:17:48;;;;;;;90.50;85.20;;;;;;;;;;5072503;28;20277;-76
2023/11/28 04:20:15;;;;;;;84.85;79.93;;;;;;;;;;5072499;28;20214;-76
2023/11/28 04:22:42;;;;;;;83.35;79.07;;;;;;;;;;5072318;28;20596;-76
2023/11/28 04:25:09;;;;;;;79.40;75.00;;;;;;;;;;5071521;28;20203;-76
2023/11/28 04:27:38;;;;;;;85.72;81.05;;;;;;;;;;5071907;28;20318;-77
2023/11/28 04:30:06;;;;;;;79.93;75.63;;;;;;;;;;5072253;28;20249;-76
2023/11/28 04:32:33;;;;;;;74.97;70.72;;;;;;;;;;5072224;28;20207;-77
2023/11/28 04:35:00;;;;;;;78.43;74.07;;;;;;;;;;5071361;28;20268;-76
2023/11/28 04:37:27;;;;;;;77.82;73.22;;;;;;;;;;5071969;28;20234;-77
2023/11/28 04:39:54;;;;;;;75.30;71.38;;;;;;;;;;5071611;28;20590;-76
2023/11/28 04:42:21;;;;;;;72.07;67.85;;;;;;;;;;5072206;28;20215;-76
2023/11/28 04:44:49;;;;;;;79.30;74.47;;;;;;;;;;5071146;28;20210;-77
2023/11/28 04:47:16;;;;;;;74.43;70.03;;;;;;;;;;5071874;28;20250;-76
2023/11/28 04:49:44;;;;;;;71.50;67.32;;;;;;;;;;5071747;28;20286;-76
2023/11/28 04:52:11;;;;;;;74.00;69.80;;;;;;;;;;5071452;28;20222;-77
2023/11/28 04:54:38;;;;;;;71.93;67.72;;;;;;;;;;5071283;28;20253;-77
2023/11/28 04:57:05;;;;;;;74.70;70.40;;;;;;;;;;5071604;28;20707;-77
2023/11/28 04:59:32;;;;;;;68.80;64.43;;;;;;;;;;5071361;28;20242;-77
2023/11/28 05:02:01;;;;;;;65.22;61.53;;;;;;;;;;5071855;28;20625;-77
2023/11/28 05:04:28;;;;;;;63.40;59.65;;;;;;;;;;5071486;28;20203;-76
2023/11/28 05:06:55;;;;;;;64.70;60.95;;;;;;;;;;5071625;28;20584;-76
2023/11/28 05:09:22;;;;;;;58.58;55.10;;;;;;;;;;5071509;28;20203;-76
2023/11/28 05:11:49;;;;;;;60.92;57.13;;;;;;;;;;5071713;28;20211;-76
2023/11/28 05:14:16;;;;;;;56.70;53.55;;;;;;;;;;5070284;28;20250;-77
2023/11/28 05:16:44;;;;;;;55.95;52.28;;;;;;;;;;5071074;28;20227;-78
2023/11/28 05:19:14;;;;;;;54.58;51.25;;;;;;;;;;5071696;28;20215;-77
2023/11/28 05:21:41;;;;;;;50.72;47.90;;;;;;;;;;5071711;28;20549;-76
2023/11/28 05:24:09;;;;;;;53.78;50.15;;;;;;;;;;5071006;28;20214;-76
2023/11/28 05:26:36;;;;;;;53.60;50.20;;;;;;;;;;5070851;28;20639;-76
2023/11/28 05:29:03;;;;;;;48.15;45.60;;;;;;;;;;5071204;28;20198;-77
2023/11/28 05:31:30;;;;;;;50.47;47.40;;;;;;;;;;5071547;28;20203;-77
2023/11/28 05:33:57;;;;;;;51.70;48.47;;;;;;;;;;5070762;28;20207;-76
2023/11/28 05:36:26;;;;;;;47.85;44.95;;;;;;;;;;5071274;28;20239;-76
2023/11/28 05:38:53;;;;;;;46.70;43.80;;;;;;;;;;5071406;28;20246;-76
2023/11/28 05:41:20;;;;;;;49.38;46.58;;;;;;;;;;5070779;28;20207;-76
2023/11/28 05:43:47;;;;;;;45.05;42.40;;;;;;;;;;5071549;28;20204;-77
2023/11/28 05:46:14;;;;;;;45.08;41.88;;;;;;;;;;5071580;28;20195;-76
2023/11/28 05:48:41;;;;;;;44.17;41.22;;;;;;;;;;5071210;28;20203;-75
2023/11/28 05:51:10;;;;;;;40.67;38.45;;;;;;;;;;5073498;28;20199;-77
2023/11/28 05:53:38;;;;;;;38.90;36.58;;;;;;;;;;5075511;28;20204;-77
2023/11/28 05:56:08;;;;;;;44.08;40.97;;;;;;;;;;5074217;28;20219;-76
2023/11/28 05:58:35;;;;;;;41.38;38.67;;;;;;;;;;5075098;28;20246;-77
2023/11/28 06:01:02;;;;;;;42.58;39.67;;;;;;;;;;5075141;28;20210;-75
2023/11/28 06:03:30;;;;;;;40.65;37.85;;;;;;;;;;5074171;28;20741;-75
2023/11/28 06:05:57;;;;;;;38.28;35.88;;;;;;;;;;5073924;28;20547;-75
2023/11/28 06:08:24;;;;;;;37.00;34.65;;;;;;;;;;5074630;28;20204;-76
2023/11/28 06:10:52;;;;;;;38.95;36.35;;;;;;;;;;5074787;28;20936;-75
2023/11/28 06:13:19;;;;;;;38.85;36.40;;;;;;;;;;5073873;28;20226;-77
2023/11/28 06:15:46;;;;;;;35.30;33.22;;;;;;;;;;5074242;28;20223;-75
2023/11/28 06:18:13;;;;;;;38.95;36.38;;;;;;;;;;5074639;28;20230;-75
2023/11/28 06:20:40;;;;;;;38.13;35.70;;;;;;;;;;5074580;28;20261;-76
2023/11/28 06:23:08;;;;;;;38.40;36.10;;;;;;;;;;5074666;28;20203;-75
2023/11/28 06:25:35;;;;;;;35.42;33.22;;;;;;;;;;5073849;28;20203;-75
2023/11/28 06:28:03;;;;;;;36.05;33.65;;;;;;;;;;5074523;28;20246;-76
2023/11/28 06:30:30;;;;;;;33.35;31.45;;;;;;;;;;5074425;28;20669;-76
2023/11/28 06:32:57;;;;;;;31.88;29.98;;;;;;;;;;5074499;28;20294;-76
2023/11/28 06:35:26;;;;;;;34.17;32.08;;;;;;;;;;5073582;28;20820;-76
2023/11/28 06:37:53;;;;;;;31.70;29.80;;;;;;;;;;5074306;28;20227;-76
2023/11/28 06:40:21;;;;;;;30.63;28.75;;;;;;;;;;5074159;28;20686;-75
2023/11/28 06:42:48;;;;;;;30.80;28.50;;;;;;;;;;5074068;28;20575;-77
2023/11/28 06:45:16;;;;;;;28.83;27.13;;;;;;;;;;5072133;28;20215;-75
2023/11/28 06:47:43;;;;;;;29.02;27.33;;;;;;;;;;5074125;28;20273;-75
2023/11/28 06:50:11;;;;;;;28.60;26.88;;;;;;;;;;5074154;28;20257;-76
2023/11/28 06:52:38;;;;;;;28.08;26.48;;;;;;;;;;5073949;28;20230;-75
2023/11/28 06:55:06;;;;;;;29.13;27.23;;;;;;;;;;5073138;28;20211;-75
2023/11/28 06:57:33;;;;;;;28.92;27.33;;;;;;;;;;5074194;28;20322;-75
2023/11/28 07:00:00;;;;;;;26.75;25.25;;;;;;;;;;5072323;28;20214;-76
2023/11/28 07:02:29;;;;;;;25.83;24.42;;;;;;;;;;5055733;28;20234;-76
2023/11/28 07:04:56;;;;;;;25.60;23.83;;;;;;;;;;5073201;28;20208;-76
2023/11/28 07:07:24;;;;;;;26.67;25.08;;;;;;;;;;5073796;28;20568;-76
2023/11/28 07:09:51;;;;;;;26.15;24.55;;;;;;;;;;5073955;28;20212;-76
2023/11/28 07:12:18;;;;;;;23.60;22.42;;;;;;;;;;5073217;28;20234;-74
2023/11/28 07:14:45;;;;;;;24.02;22.83;;;;;;;;;;5072444;28;20540;-75
2023/11/28 07:17:12;;;;;;;26.33;24.92;;;;;;;;;;5066109;28;20228;-75
2023/11/28 07:19:40;;;;;;;25.23;23.92;;;;;;;;;;5053107;28;20211;-74
2023/11/28 07:22:08;;;;;;;24.95;23.58;;;;;;;;;;5053351;28;20302;-74
2023/11/28 07:24:36;;;;;;;23.15;22.05;;;;;;;;;;5052644;28;20212;-75
2023/11/28 07:27:03;;;;;;;25.10;23.60;;;;;;;;;;5053069;28;20586;-75
2023/11/28 07:29:30;;;;;;;23.70;22.50;;;;;;;;;;5053215;28;20265;-74
2023/11/28 07:31:57;;;;;;;23.33;22.13;;;;;;;;;;5053207;28;20295;-74
2023/11/28 07:34:24;;;;;;;22.08;20.98;;;;;;;;;;5052753;28;20215;-75
2023/11/28 07:36:53;;;;;;;23.15;21.95;;;;;;;;;;5052795;28;20626;-74
2023/11/28 07:39:20;;;;;;;23.00;21.70;;;;;;;;;;5053119;28;20246;-74
2023/11/28 07:41:47;;;;;;;23.27;22.08;;;;;;;;;;5053092;28;20204;-75
2023/11/28 07:44:14;;;;;;;24.10;22.80;;;;;;;;;;5061057;28;20195;-75
2023/11/28 07:46:41;;;;;;;22.08;20.88;;;;;;;;;;5072922;28;20228;-75
2023/11/28 07:49:08;;;;;;;22.73;21.55;;;;;;;;;;5072085;28;20192;-75
2023/11/28 07:51:35;;;;;;;21.80;20.70;;;;;;;;;;5069926;28;20548;-75
2023/11/28 07:54:04;;;;;;;21.67;20.58;;;;;;;;;;5072382;28;20219;-74
2023/11/28 07:56:31;;;;;;;22.58;21.35;;;;;;;;;;5072859;28;20284;-75
2023/11/28 07:58:58;;;;;;;22.30;21.00;;;;;;;;;;5073035;28;20207;-74
2023/11/28 08:01:26;;;;;;;22.10;21.00;;;;;;;;;;5072415;28;20211;-75
2023/11/28 08:03:53;;;;;;;22.13;20.98;;;;;;;;;;5072586;28;20207;-75
2023/11/28 08:06:20;;;;;;;21.60;20.50;;;;;;;;;;5072371;28;20572;-74
2023/11/28 08:08:47;;;;;;;20.95;19.95;;;;;;;;;;5072575;28;20210;-75
2023/11/28 08:11:15;;;;;;;23.00;21.60;;;;;;;;;;5072921;28;20609;-73
2023/11/28 08:13:42;;;;;;;22.92;21.48;;;;;;;;;;5071579;28;20215;-76
2023/11/28 08:16:10;;;;;;;22.75;21.50;;;;;;;;;;5071830;28;20228;-79
2023/11/28 08:18:37;;;;;;;21.52;20.35;;;;;;;;;;5071914;28;20204;-73
2023/11/28 08:21:06;;;;;;;22.58;21.38;;;;;;;;;;5053429;28;20215;-74
2023/11/28 08:23:33;;;;;;;22.88;21.67;;;;;;;;;;5072117;28;20215;-74
2023/11/28 08:26:00;;;;;;;23.10;21.70;;;;;;;;;;5072035;28;20200;-75
2023/11/28 08:28:29;;;;;;;22.98;21.67;;;;;;;;;;5063021;28;20216;-74
2023/11/28 08:30:56;;;;;;;22.65;21.35;;;;;;;;;;5052410;28;20281;-74
2023/11/28 08:33:23;;;;;;;23.13;21.83;;;;;;;;;;5052083;28;20294;-74
2023/11/28 08:35:50;;;;;;;23.10;21.80;;;;;;;;;;5051670;28;20235;-75
2023/11/28 08:38:17;;;;;;;22.40;21.20;;;;;;;;;;5051981;28;20236;-74
2023/11/28 08:40:44;;;;;;;22.17;20.98;;;;;;;;;;5052247;28;20211;-74
2023/11/28 08:43:11;;;;;;;23.15;21.75;;;;;;;;;;5052218;28;20215;-74
2023/11/28 08:45:40;;;;;;;24.65;23.05;;;;;;;;;;5051794;28;20201;-74
2023/11/28 08:48:07;;;;;;;23.63;22.25;;;;;;;;;;5052056;28;20219;-75
2023/11/28 08:50:34;;;;;;;24.80;23.10;;;;;;;;;;5050808;28;20208;-74
2023/11/28 08:53:02;;;;;;;23.67;22.48;;;;;;;;;;5051907;28;20220;-75
2023/11/28 08:55:29;;;;;;;23.55;22.17;;;;;;;;;;5050039;28;20231;-74
2023/11/28 08:57:57;;;;;;;24.25;22.67;;;;;;;;;;5050506;28;20281;-74
2023/11/28 09:00:24;;;;;;;23.02;21.73;;;;;;;;;;5050814;28;20303;-73
2023/11/28 09:02:52;;;;;;;23.35;22.05;;;;;;;;;;5050935;28;20676;-74
2023/11/28 09:05:20;;;;;;;25.00;23.50;;;;;;;;;;5051192;28;20307;-74
2023/11/28 09:07:49;;;;;;;21.33;20.30;;;;;;;;;;5051740;28;20247;-74
2023/11/28 09:10:16;;;;;;;23.55;22.05;;;;;;;;;;5051422;28;20216;-73
2023/11/28 09:12:47;;;;;;;23.50;22.10;;;;;;;;;;5057379;28;20250;-73
2023/11/28 09:15:14;;;;;;;24.20;22.70;;;;;;;;;;5052324;28;20269;-72
2023/11/28 09:17:41;;;;;;;25.60;24.00;;;;;;;;;;5051440;28;20557;-75
2023/11/28 09:20:10;;;;;;;23.98;22.58;;;;;;;;;;5051656;28;20663;-78
2023/11/28 09:22:37;;;;;;;24.77;23.38;;;;;;;;;;5051490;28;20204;-73
2023/11/28 09:25:04;;;;;;;23.75;22.30;;;;;;;;;;5051519;28;20211;-73
2023/11/28 09:27:31;;;;;;;23.58;22.27;;;;;;;;;;5062008;28;21046;-73
2023/11/28 09:29:58;;;;;;;23.90;22.50;;;;;;;;;;5075580;28;20253;-73
2023/11/28 09:32:26;;;;;;;23.15;21.85;;;;;;;;;;5074958;28;21013;-74
2023/11/28 09:34:53;;;;;;;23.27;21.92;;;;;;;;;;5060047;28;20630;-74
2023/11/28 09:37:22;;;;;;;22.95;21.70;;;;;;;;;;5057789;28;20240;-74
2023/11/28 09:39:49;;;;;;;24.17;22.75;;;;;;;;;;5059634;28;20750;-74
2023/11/28 09:42:16;;;;;;;23.35;22.05;;;;;;;;;;5054622;28;20281;-75
2023/11/28 09:44:45;;;;;;;23.17;21.88;;;;;;;;;;5053093;28;20219;-74
2023/11/28 09:47:12;;;;;;;24.13;22.63;;;;;;;;;;5054607;28;21043;-73
2023/11/28 09:49:41;;;;;;;24.00;22.55;;;;;;;;;;5062169;28;20218;-75
2023/11/28 09:52:08;;;;;;;23.48;22.17;;;;;;;;;;5073514;28;20290;-75
2023/11/28 09:54:38;;;;;;;22.90;21.60;;;;;;;;;;5073793;28;20211;-75
2023/11/28 09:57:06;;;;;;;23.90;22.42;;;;;;;;;;5073815;28;20238;-74
2023/11/28 09:59:37;;;;;;;23.98;22.58;;;;;;;;;;5056552;28;20212;-75
2023/11/28 10:02:08;;;;;;;24.70;23.20;;;;;;;;;;5074242;28;20211;-76
2023/11/28 10:04:38;;;;;;;23.80;22.40;;;;;;;;;;5073694;28;20212;-76
2023/11/28 10:07:06;;;;;;;23.65;22.15;;;;;;;;;;5074515;28;20280;-75
2023/11/28 10:09:33;;;;;;;21.63;20.42;;;;;;;;;;5074712;28;20269;-76
2023/11/28 10:12:04;;;;;;;22.63;21.33;;;;;;;;;;5077212;28;20199;-84
2023/11/28 10:14:31;;;;;;;22.67;21.38;;;;;;;;;;5080051;28;20220;-86
2023/11/28 10:16:58;;;;;;;22.95;21.35;;;;;;;;;;5082409;28;20234;-85
2023/11/28 10:19:25;;;;;;;24.13;22.52;;;;;;;;;;5082122;28;20590;-85
2023/11/28 10:21:52;;;;;;;23.20;21.90;;;;;;;;;;5082509;28;20214;-84
2023/11/28 10:24:21;;;;;;;22.35;21.13;;;;;;;;;;5080360;28;20226;-79
2023/11/28 10:26:48;;;;;;;22.70;21.33;;;;;;;;;;5080186;28;20228;-81
2023/11/28 10:29:19;;;;;;;23.13;21.83;;;;;;;;;;5079588;28;20661;-87
2023/11/28 10:31:46;;;;;;;23.77;22.27;;;;;;;;;;5079909;28;20773;-79
2023/11/28 10:34:13;;;;;;;23.08;21.75;;;;;;;;;;5077695;28;20202;-79
2023/11/28 10:36:42;;;;;;;22.85;21.45;;;;;;;;;;5077497;28;20231;-79
2023/11/28 10:39:10;;;;;;;23.17;21.70;;;;;;;;;;5077739;28;20208;-79
2023/11/28 10:41:38;;;;;;;22.25;20.95;;;;;;;;;;5078482;28;20208;-80
2023/11/28 10:44:06;;;;;;;22.98;21.67;;;;;;;;;;5077797;28;20207;-81
2023/11/28 10:46:35;;;;;;;23.88;22.40;;;;;;;;;;5077788;28;20216;-80
2023/11/28 10:49:03;;;;;;;23.27;21.77;;;;;;;;;;5078128;28;20215;-80
2023/11/28 10:51:30;;;;;;;23.50;22.10;;;;;;;;;;5077938;28;20253;-79
2023/11/28 10:54:00;;;;;;;23.83;22.25;;;;;;;;;;5077769;28;20207;-79
2023/11/28 10:56:28;;;;;;;21.58;20.35;;;;;;;;;;5077432;28;20207;-81
2023/11/28 10:58:57;;;;;;;24.23;22.73;;;;;;;;;;5076234;28;20231;-80
2023/11/28 11:01:24;;;;;;;22.85;21.55;;;;;;;;;;5069264;28;20215;-79
2023/11/28 11:03:54;;;;;;;23.23;21.83;;;;;;;;;;5056882;28;20859;-80
2023/11/28 11:06:22;;;;;;;24.70;23.27;;;;;;;;;;5058451;28;20263;-80
2023/11/28 11:08:49;;;;;;;23.13;21.70;;;;;;;;;;5062822;28;20215;-83
2023/11/28 11:11:17;;;;;;;24.25;22.75;;;;;;;;;;5075686;28;20218;-83
2023/11/28 11:13:51;;;;;;;22.92;21.63;;;;;;;;;;5073861;28;20226;-77
2023/11/28 11:16:21;;;;;;;23.75;22.35;;;;;;;;;;5074947;28;20219;-75
2023/11/28 11:18:49;;;;;;;23.80;22.30;;;;;;;;;;5073309;28;20175;-76
2023/11/28 11:21:20;;;;;;;23.30;21.90;;;;;;;;;;5073030;28;20203;-75
2023/11/28 11:23:48;;;;;;;23.23;21.80;;;;;;;;;;5072775;28;20265;-77
2023/11/28 11:26:15;;;;;;;23.38;21.88;;;;;;;;;;5072852;28;20243;-75
2023/11/28 11:28:42;;;;;;;23.25;21.95;;;;;;;;;;5073187;28;20261;-76
2023/11/28 11:31:10;;;;;;;23.15;21.75;;;;;;;;;;5073085;28;20261;-76
2023/11/28 11:33:37;;;;;;;22.80;21.50;;;;;;;;;;5072857;28;20257;-75
2023/11/28 11:36:09;;;;;;;23.17;21.67;;;;;;;;;;5071556;28;20559;-75
2023/11/28 11:38:37;;;;;;;23.05;21.70;;;;;;;;;;5072507;28;20241;-75
2023/11/28 11:41:05;;;;;;;24.25;22.55;;;;;;;;;;5072887;28;20219;-74
2023/11/28 11:43:36;;;;;;;23.77;22.45;;;;;;;;;;5072381;28;20246;-75
2023/11/28 11:46:09;;;;;;;23.05;21.67;;;;;;;;;;5071975;28;20192;-74
2023/11/28 11:48:37;;;;;;;25.02;23.33;;;;;;;;;;5071308;28;20214;-74
2023/11/28 11:51:04;;;;;;;23.35;21.90;;;;;;;;;;5072730;28;20248;-75
2023/11/28 11:53:33;;;;;;;24.73;23.23;;;;;;;;;;5072752;28;20214;-78
2023/11/28 11:56:02;;;;;;;23.90;22.35;;;;;;;;;;5071973;28;20203;-76
2023/11/28 11:58:30;;;;;;;22.30;21.00;;;;;;;;;;5072516;28;20342;-75
2023/11/28 12:00:57;;;;;;;23.80;22.50;;;;;;;;;;5072249;28;20273;-75
2023/11/28 12:03:24;;;;;;;25.15;23.65;;;;;;;;;;5072314;28;20667;-74
2023/11/28 12:05:52;;;;;;;23.42;22.02;;;;;;;;;;5071801;28;20328;-74
2023/11/28 12:08:19;;;;;;;23.30;21.92;;;;;;;;;;5072181;28;20583;-76
2023/11/28 12:10:46;;;;;;;22.88;21.58;;;;;;;;;;5072276;28;20204;-74
2023/11/28 12:13:17;;;;;;;24.13;22.63;;;;;;;;;;5072140;28;20219;-75
2023/11/28 12:15:44;;;;;;;23.17;21.77;;;;;;;;;;5071350;28;20214;-75
2023/11/28 12:18:12;;;;;;;23.45;22.05;;;;;;;;;;5071909;28;20296;-74
2023/11/28 12:20:39;;;;;;;23.58;22.15;;;;;;;;;;5072309;28;20260;-74
2023/11/28 12:23:07;;;;;;;23.15;21.65;;;;;;;;;;5072351;28;20207;-74
2023/11/28 12:25:36;;;;;;;23.45;21.95;;;;;;;;;;5071683;28;20203;-75
2023/11/28 12:28:03;;;;;;;23.42;21.92;;;;;;;;;;5071922;28;20330;-76
2023/11/28 12:30:32;;;;;;;22.58;21.13;;;;;;;;;;5072229;28;20203;-74
2023/11/28 12:32:59;;;;;;;26.08;24.63;;;;;;;;;;5071748;28;20682;-76
2023/11/28 12:35:27;;;;;;;25.15;23.75;;;;;;;;;;5071386;28;20537;-75
2023/11/28 12:37:54;;;;;;;23.17;21.88;;;;;;;;;;5071887;28;20227;-75
2023/11/28 12:40:22;;;;;;;23.50;22.20;;;;;;;;;;5071807;28;20253;-74
2023/11/28 12:42:50;;;;;;;23.10;21.70;;;;;;;;;;5072268;28;20211;-74
2023/11/28 12:45:20;;;;;;;24.70;23.10;;;;;;;;;;5071339;28;20302;-75
2023/11/28 12:47:48;;;;;;;22.23;21.02;;;;;;;;;;5071075;28;20662;-74
2023/11/28 12:50:15;;;;;;;23.20;21.90;;;;;;;;;;5071491;28;20685;-75
2023/11/28 12:52:44;;;;;;;24.33;22.80;;;;;;;;;;5071839;28;20211;-76
2023/11/28 12:55:11;;;;;;;22.77;21.25;;;;;;;;;;5071111;28;20651;-74
2023/11/28 12:57:38;;;;;;;23.10;21.73;;;;;;;;;;5071588;28;20234;-74
2023/11/28 13:00:05;;;;;;;22.77;21.48;;;;;;;;;;5071452;28;20253;-74
2023/11/28 13:02:32;;;;;;;23.60;22.13;;;;;;;;;;5071387;28;20203;-75
2023/11/28 13:05:00;;;;;;;23.33;21.95;;;;;;;;;;5071200;28;20211;-75
2023/11/28 13:07:28;;;;;;;25.38;23.67;;;;;;;;;;5071644;28;20223;-74
2023/11/28 13:09:59;;;;;;;24.35;22.88;;;;;;;;;;5071657;28;20211;-75
2023/11/28 13:12:26;;;;;;;26.40;24.35;;;;;;;;;;5071358;28;20791;-74
2023/11/28 13:14:54;;;;;;;29.90;27.40;;;;;;;;;;5071047;28;20196;-75
2023/11/28 13:17:22;;;;;;;25.85;24.05;;;;;;;;;;5062256;28;20332;-75
2023/11/28 13:19:49;;;;;;;24.23;22.77;;;;;;;;;;5051074;28;20652;-75
2023/11/28 13:22:19;;;;;;;23.30;21.90;;;;;;;;;;5051318;28;20294;-75
2023/11/28 13:24:46;;;;;;;25.20;23.63;;;;;;;;;;5050939;28;20210;-74
2023/11/28 13:27:13;;;;;;;24.05;22.55;;;;;;;;;;5051250;28;20313;-74
2023/11/28 13:29:41;;;;;;;23.92;22.52;;;;;;;;;;5050675;28;20212;-75
2023/11/28 13:32:09;;;;;;;23.70;22.30;;;;;;;;;;5051392;28;20204;-74
2023/11/28 13:34:40;;;;;;;23.88;22.48;;;;;;;;;;5050884;28;20208;-75
2023/11/28 13:37:08;;;;;;;25.05;23.48;;;;;;;;;;5051269;28;20270;-75
2023/11/28 13:39:36;;;;;;;23.27;21.98;;;;;;;;;;5051456;28;20299;-74
2023/11/28 13:42:03;;;;;;;23.35;21.95;;;;;;;;;;5051426;28;20213;-74
2023/11/28 13:44:31;;;;;;;23.55;22.15;;;;;;;;;;5050437;28;20786;-75
2023/11/28 13:46:59;;;;;;;23.13;21.52;;;;;;;;;;5051214;28;20640;-74
2023/11/28 13:49:26;;;;;;;23.77;22.38;;;;;;;;;;5050763;28;20204;-75
2023/11/28 13:51:53;;;;;;;24.42;22.83;;;;;;;;;;5051269;28;20216;-75
2023/11/28 13:54:20;;;;;;;23.88;22.48;;;;;;;;;;5050628;28;20200;-74
2023/11/28 13:56:48;;;;;;;24.08;22.58;;;;;;;;;;5051655;28;20221;-74
2023/11/28 13:59:18;;;;;;;24.17;22.67;;;;;;;;;;5051079;28;20224;-74
2023/11/28 14:01:45;;;;;;;24.05;22.45;;;;;;;;;;5051221;28;20204;-75
2023/11/28 14:04:13;;;;;;;24.65;22.95;;;;;;;;;;5050517;28;20207;-75
2023/11/28 14:06:40;;;;;;;24.85;23.05;;;;;;;;;;5050987;28;20224;-74
2023/11/28 14:09:11;;;;;;;23.92;22.42;;;;;;;;;;5051031;28;20204;-74
2023/11/28 14:11:38;;;;;;;24.00;22.60;;;;;;;;;;5052356;28;20227;-74
2023/11/28 14:14:06;;;;;;;24.75;23.10;;;;;;;;;;5054117;28;21181;-75
2023/11/28 14:16:33;;;;;;;25.40;23.60;;;;;;;;;;5054386;28;20267;-74
2023/11/28 14:19:00;;;;;;;24.30;22.50;;;;;;;;;;5054687;28;20228;-75